Time;durP1;ratioP1;P1;durP2;ratioP2;P2;SDS_P1;SDS_P2;PMS_P1;PMS_P2;Temp;Humidity;BMP_temperature;BMP_pressure;BME280_temperature;BME280_humidity;BME280_pressure;Samples;Min_cycle;Max_cycle;Signal;HPM_P1;HPM_P2
2023/05/22 00:00:43;;;;;;;24.15;18.75;;;;;;;;;;4937656;29;20035;-76
2023/05/22 00:03:09;;;;;;;28.13;18.38;;;;;;;;;;4938235;28;20062;-76
2023/05/22 00:05:37;;;;;;;26.58;19.15;;;;;;;;;;4930537;29;20043;-76
2023/05/22 00:08:04;;;;;;;31.70;19.55;;;;;;;;;;4931403;29;20035;-76
2023/05/22 00:10:30;;;;;;;23.38;17.75;;;;;;;;;;4930949;29;20050;-76
2023/05/22 00:12:56;;;;;;;21.13;18.65;;;;;;;;;;4928102;29;20028;-75
2023/05/22 00:15:22;;;;;;;25.88;19.60;;;;;;;;;;4936990;29;20508;-76
2023/05/22 00:17:48;;;;;;;25.45;18.90;;;;;;;;;;4943513;28;20163;-76
2023/05/22 00:20:14;;;;;;;26.90;18.25;;;;;;;;;;4933916;29;20094;-76
2023/05/22 00:22:41;;;;;;;25.95;18.70;;;;;;;;;;4929322;29;20040;-76
2023/05/22 00:25:07;;;;;;;31.52;19.45;;;;;;;;;;4931826;29;20039;-77
2023/05/22 00:27:33;;;;;;;26.35;18.80;;;;;;;;;;4930238;29;20051;-76
2023/05/22 00:29:59;;;;;;;28.02;19.80;;;;;;;;;;4931490;29;20039;-76
2023/05/22 00:32:26;;;;;;;24.75;18.27;;;;;;;;;;4932370;29;20035;-77
2023/05/22 00:34:52;;;;;;;27.67;18.48;;;;;;;;;;4934165;29;20072;-75
2023/05/22 00:37:19;;;;;;;28.50;19.50;;;;;;;;;;4941264;29;20546;-75
2023/05/22 00:39:45;;;;;;;23.10;17.98;;;;;;;;;;4929858;29;20482;-76
2023/05/22 00:42:11;;;;;;;29.40;20.73;;;;;;;;;;4940207;29;20094;-76
2023/05/22 00:44:37;;;;;;;25.30;19.25;;;;;;;;;;4931323;29;20038;-75
2023/05/22 00:47:03;;;;;;;24.63;18.92;;;;;;;;;;4937129;29;20038;-76
2023/05/22 00:49:30;;;;;;;27.00;18.95;;;;;;;;;;4924940;29;20044;-77
2023/05/22 00:51:56;;;;;;;22.08;17.23;;;;;;;;;;4936121;28;20068;-76
2023/05/22 00:54:22;;;;;;;20.77;17.67;;;;;;;;;;4930196;29;20437;-76
2023/05/22 00:56:48;;;;;;;23.17;18.23;;;;;;;;;;4936862;29;20035;-75
2023/05/22 00:59:14;;;;;;;22.80;17.95;;;;;;;;;;4930656;29;20098;-76
2023/05/22 01:01:41;;;;;;;26.90;19.30;;;;;;;;;;4932327;29;20450;-76
2023/05/22 01:04:09;;;;;;;24.20;19.63;;;;;;;;;;4930919;29;20390;-76
2023/05/22 01:06:35;;;;;;;26.02;19.75;;;;;;;;;;4931966;29;20043;-76
2023/05/22 01:09:03;;;;;;;24.02;18.92;;;;;;;;;;4925782;29;20062;-77
2023/05/22 01:11:37;;;;;;;29.10;20.40;;;;;;;;;;4940001;29;20023;-75
2023/05/22 01:14:21;;;;;;;29.58;20.73;;;;;;;;;;4927636;29;20040;-76
2023/05/22 01:17:11;;;;;;;26.38;20.35;;;;;;;;;;4943763;29;20065;-75
2023/05/22 01:19:38;;;;;;;27.10;20.27;;;;;;;;;;4926372;29;20107;-76
2023/05/22 01:22:23;;;;;;;28.33;20.42;;;;;;;;;;4932786;29;20066;-76
2023/05/22 01:24:50;;;;;;;24.05;19.42;;;;;;;;;;4929336;29;20071;-75
2023/05/22 01:27:54;;;;;;;24.33;19.05;;;17.80;99.90;;;;;;4931201;29;20083;-76
2023/05/22 01:30:41;;;;;;;31.52;20.90;;;17.50;99.90;;;;;;4934074;29;20602;-75
2023/05/22 01:33:07;;;;;;;29.23;21.13;;;;;;;;;;4931345;29;20312;-75
2023/05/22 01:35:34;;;;;;;28.08;20.90;;;;;;;;;;4933335;29;20106;-74
2023/05/22 01:38:01;;;;;;;28.48;22.15;;;;;;;;;;4930886;29;20435;-75
2023/05/22 01:40:28;;;;;;;27.20;20.83;;;;;;;;;;4933284;29;20038;-74
2023/05/22 01:42:54;;;;;;;27.35;20.80;;;;;;;;;;4927371;29;20039;-76
2023/05/22 01:45:21;;;;;;;26.92;21.40;;;;;;;;;;4930725;29;20099;-75
2023/05/22 01:47:47;;;;;;;29.08;21.65;;;;;;;;;;4932296;28;20349;-75
2023/05/22 01:50:13;;;;;;;29.00;23.05;;;;;;;;;;4930023;29;20458;-76
2023/05/22 01:52:45;;;;;;;28.13;21.92;;;;;;;;;;4932240;29;20031;-76
2023/05/22 01:55:20;;;;;;;;;;;17.60;99.90;;;;;;4930503;29;20027;-75
2023/05/22 01:58:04;;;;;;;29.00;21.88;;;;;;;;;;4914264;29;20440;-75
2023/05/22 02:00:32;;;;;;;27.00;22.08;;;;;;;;;;4948449;28;20098;-75
2023/05/22 02:03:02;;;;;;;26.60;21.05;;;;;;;;;;4932050;29;20118;-75
2023/05/22 02:05:29;;;;;;;30.13;21.33;;;;;;;;;;4932743;29;20046;-75
2023/05/22 02:07:57;;;;;;;30.58;23.05;;;;;;;;;;4932387;29;20040;-76
2023/05/22 02:10:25;;;;;;;24.08;19.88;;;;;;;;;;4924261;29;20521;-76
2023/05/22 02:12:51;;;;;;;26.48;21.38;;;;;;;;;;4926106;29;20061;-76
2023/05/22 02:15:17;;;;;;;29.65;22.05;;;;;;;;;;4933093;29;20035;-75
2023/05/22 02:17:44;;;;;;;35.42;22.63;;;;;;;;;;4938152;28;20091;-75
2023/05/22 02:20:13;;;;;;;27.23;22.00;;;;;;;;;;4930253;29;20035;-76
2023/05/22 02:22:40;;;;;;;28.52;21.48;;;;;;;;;;4934010;29;20027;-75
2023/05/22 02:25:10;;;;;;;31.33;21.85;;;;;;;;;;4934153;29;20036;-75
2023/05/22 02:27:36;;;;;;;26.77;21.77;;;;;;;;;;4917324;29;20060;-75
2023/05/22 02:30:02;;;;;;;28.63;21.77;;;;;;;;;;4926306;29;20036;-76
2023/05/22 02:32:28;;;;;;;29.38;22.02;;;;;;;;;;4939289;29;20039;-75
2023/05/22 02:34:54;;;;;;;22.90;20.40;;;;;;;;;;4965540;28;20047;-75
2023/05/22 02:37:20;;;;;;;32.55;22.35;;;;;;;;;;4934191;29;20382;-76
2023/05/22 02:39:46;;;;;;;29.60;20.85;;;;;;;;;;4965145;28;20095;-75
2023/05/22 02:42:12;;;;;;;25.70;21.02;;;;;;;;;;4931985;29;20426;-76
2023/05/22 02:44:38;;;;;;;30.17;24.35;;;;;;;;;;4943345;29;20093;-74
2023/05/22 02:47:04;;;;;;;29.98;22.67;;;;;;;;;;4935711;29;20047;-75
2023/05/22 02:49:30;;;;;;;28.52;23.00;;;;;;;;;;4933740;29;20031;-75
2023/05/22 02:51:56;;;;;;;29.83;23.13;;;;;;;;;;4934048;29;20040;-76
2023/05/22 02:54:22;;;;;;;33.85;23.75;;;;;;;;;;4931736;29;20040;-77
2023/05/22 02:56:48;;;;;;;31.75;24.92;;;;;;;;;;4929927;29;20120;-75
2023/05/22 02:59:15;;;;;;;29.63;23.80;;;;;;;;;;4934262;29;20028;-76
2023/05/22 03:01:43;;;;;;;32.00;24.98;;;;;;;;;;4939056;29;20474;-74
2023/05/22 03:04:11;;;;;;;30.70;23.05;;;;;;;;;;4934145;29;20470;-76
2023/05/22 03:06:37;;;;;;;30.17;24.83;;;;;;;;;;4934836;29;20040;-75
2023/05/22 03:09:03;;;;;;;32.03;23.92;;;;;;;;;;4932791;29;20023;-77
2023/05/22 03:11:32;;;;;;;35.45;22.77;;;;;;;;;;4946365;29;20063;-76
2023/05/22 03:13:59;;;;;;;28.15;22.67;;;;;;;;;;4934629;29;20044;-76
2023/05/22 03:16:25;;;;;;;32.17;25.13;;;;;;;;;;4934013;29;20125;-76
2023/05/22 03:18:54;;;;;;;31.85;24.83;;;;;;;;;;4931944;29;20520;-75
2023/05/22 03:21:20;;;;;;;32.28;24.25;;;;;;;;;;4935914;29;20034;-77
2023/05/22 03:23:46;;;;;;;33.38;25.48;;;;;;;;;;4930880;29;20086;-76
2023/05/22 03:26:12;;;;;;;29.67;22.65;;;;;;;;;;4943660;28;20051;-76
2023/05/22 03:28:38;;;;;;;28.58;24.52;;;;;;;;;;4930296;29;20056;-74
2023/05/22 03:31:08;;;;;;;35.30;25.10;;;;;;;;;;4939836;29;20023;-76
2023/05/22 03:33:34;;;;;;;27.55;22.30;;;;;;;;;;4940363;28;20038;-75
2023/05/22 03:36:00;;;;;;;30.65;23.15;;;;;;;;;;4947999;29;20389;-75
2023/05/22 03:38:26;;;;;;;27.45;22.75;;;;;;;;;;4926670;29;20036;-75
2023/05/22 03:40:53;;;;;;;29.40;24.40;;;;;;;;;;4931794;29;20055;-74
2023/05/22 03:43:19;;;;;;;31.02;23.13;;;;;;;;;;4934988;29;20111;-75
2023/05/22 03:45:45;;;;;;;28.67;22.55;;;;;;;;;;4940564;29;20044;-76
2023/05/22 03:48:11;;;;;;;31.75;23.50;;;;;;;;;;4929328;29;20095;-77
2023/05/22 03:50:37;;;;;;;32.03;24.10;;;;;;;;;;4921005;29;20044;-75
2023/05/22 03:53:04;;;;;;;29.65;23.00;;;;;;;;;;4912961;29;20063;-74
2023/05/22 03:55:30;;;;;;;28.08;24.50;;;;;;;;;;4932888;29;20332;-73
2023/05/22 03:57:56;;;;;;;34.28;25.15;;;;;;;;;;4935050;29;20046;-72
2023/05/22 04:00:22;;;;;;;34.70;27.17;;;;;;;;;;4926593;29;20138;-75
2023/05/22 04:02:49;;;;;;;41.40;29.02;;;;;;;;;;4911637;29;20055;-75
2023/05/22 04:05:15;;;;;;;34.13;25.90;;;;;;;;;;4911360;29;20112;-75
2023/05/22 04:07:41;;;;;;;31.90;22.98;;;;;;;;;;4917626;29;20490;-73
2023/05/22 04:10:08;;;;;;;35.63;25.23;;;;;;;;;;4956260;28;20056;-73
2023/05/22 04:12:34;;;;;;;36.13;25.45;;;;;;;;;;4929823;29;20038;-74
2023/05/22 04:15:00;;;;;;;33.70;26.95;;;;;;;;;;4952981;28;20053;-75
2023/05/22 04:17:31;;;;;;;34.85;26.77;;;;;;;;;;4970879;28;20647;-75
2023/05/22 04:19:57;;;;;;;27.85;24.70;;;;;;;;;;4929740;29;20480;-74
2023/05/22 04:22:23;;;;;;;37.58;26.25;;;;;;;;;;4927732;29;20158;-74
2023/05/22 04:24:49;;;;;;;32.33;25.88;;;;;;;;;;4932207;29;20055;-73
2023/05/22 04:27:15;;;;;;;32.30;27.00;;;;;;;;;;4924087;29;20573;-72
2023/05/22 04:29:43;;;;;;;36.80;26.33;;;;;;;;;;4927377;29;20519;-72
2023/05/22 04:32:09;;;;;;;33.78;25.15;;;;;;;;;;4931869;29;20050;-74
2023/05/22 04:34:40;;;;;;;34.47;24.55;;;;;;;;;;4927352;29;20027;-74
2023/05/22 04:37:06;;;;;;;34.13;25.88;;;;;;;;;;4925784;29;20035;-75
2023/05/22 04:39:33;;;;;;;44.53;30.65;;;;;;;;;;4922979;29;20035;-75
2023/05/22 04:42:04;;;;;;;49.08;35.53;;;;;;;;;;4931980;29;20027;-75
2023/05/22 04:44:33;;;;;;;43.17;30.98;;;;;;;;;;4933075;29;20031;-74
2023/05/22 04:46:59;;;;;;;41.03;26.27;;;;;;;;;;4924664;29;20059;-73
2023/05/22 04:49:25;;;;;;;35.95;24.92;;;;;;;;;;4923007;29;20036;-74
2023/05/22 04:51:52;;;;;;;32.33;23.23;;;;;;;;;;4920327;29;20062;-73
2023/05/22 04:54:19;;;;;;;35.22;26.27;;;;;;;;;;4935283;28;20104;-75
2023/05/22 04:56:45;;;;;;;39.80;25.88;;;;;;;;;;4923672;29;20099;-75
2023/05/22 04:59:15;;;;;;;35.60;25.42;;;;;;;;;;4928965;29;20457;-74
2023/05/22 05:01:44;;;;;;;37.88;25.42;;;;;;;;;;4944154;28;20086;-75
2023/05/22 05:04:10;;;;;;;37.28;25.80;;;;;;;;;;4934379;29;20028;-75
2023/05/22 05:06:36;;;;;;;37.20;26.30;;;;;;;;;;4929638;29;20147;-75
2023/05/22 05:09:03;;;;;;;35.35;27.13;;;;;;;;;;4930355;29;20457;-75
2023/05/22 05:11:29;;;;;;;34.47;25.55;;;;;;;;;;4925427;29;20040;-75
2023/05/22 05:13:55;;;;;;;37.33;26.30;;;;;;;;;;4928522;29;20032;-73
2023/05/22 05:16:23;;;;;;;34.72;25.58;;;;;;;;;;4920563;29;20066;-73
2023/05/22 05:18:50;;;;;;;34.55;24.98;;;;;;;;;;4925715;29;20111;-74
2023/05/22 05:21:16;;;;;;;31.52;25.10;;;;;;;;;;4932369;29;20060;-75
2023/05/22 05:23:42;;;;;;;32.70;24.00;;;;;;;;;;4949088;29;20043;-75
2023/05/22 05:26:08;;;;;;;33.40;24.27;;;;;;;;;;4922268;29;20048;-75
2023/05/22 05:28:37;;;;;;;37.80;24.67;;;;;;;;;;4925913;29;20086;-77
2023/05/22 05:31:03;;;;;;;33.38;21.88;;;;;;;;;;4920769;29;20066;-77
2023/05/22 05:33:29;;;;;;;31.95;20.67;;;;;;;;;;4926234;29;20490;-76
2023/05/22 05:35:55;;;;;;;27.63;21.35;;;;;;;;;;4927935;29;20279;-76
2023/05/22 05:38:21;;;;;;;28.25;20.20;;;;;;;;;;4932995;29;20039;-76
2023/05/22 05:40:48;;;;;;;53.75;24.48;;;;;;;;;;4931926;29;20489;-75
2023/05/22 05:43:14;;;;;;;34.60;17.67;;;;;;;;;;4931121;29;20039;-74
2023/05/22 05:45:43;;;;;;;31.55;13.82;;;;;;;;;;4934260;29;20043;-74
2023/05/22 05:48:10;;;;;;;28.52;13.25;;;;;;;;;;4956508;28;20027;-74
2023/05/22 05:50:36;;;;;;;36.95;11.23;;;;;;;;;;4927763;29;20036;-74
2023/05/22 05:53:02;;;;;;;21.70;10.35;;;;;;;;;;4930766;29;20116;-74
2023/05/22 05:55:29;;;;;;;27.38;10.43;;;;;;;;;;4940436;29;20115;-74
2023/05/22 05:57:55;;;;;;;28.50;11.13;;;;;;;;;;4931214;29;20475;-75
2023/05/22 06:00:21;;;;;;;24.48;9.27;;;;;;;;;;4941221;29;20059;-74
2023/05/22 06:02:47;;;;;;;27.45;9.60;;;;;;;;;;4933057;29;20032;-74
2023/05/22 06:05:16;;;;;;;30.25;9.45;;;;;;;;;;4936754;29;20036;-76
2023/05/22 06:07:42;;;;;;;26.42;10.23;;;;;;;;;;4939701;29;20035;-75
2023/05/22 06:10:09;;;;;;;25.17;9.40;;;;;;;;;;4935496;29;20030;-74
2023/05/22 06:12:36;;;;;;;22.83;8.45;;;;;;;;;;4935412;29;20075;-75
2023/05/22 06:15:03;;;;;;;23.17;8.65;;;;;;;;;;4931108;29;20064;-75
2023/05/22 06:17:30;;;;;;;22.65;8.13;;;;;;;;;;4940476;29;20142;-75
2023/05/22 06:19:56;;;;;;;18.58;8.07;;;;;;;;;;4936755;29;20094;-79
2023/05/22 06:22:24;;;;;;;23.73;10.00;;;;;;;;;;4924531;29;20083;-76
2023/05/22 06:24:53;;;;;;;21.80;10.80;;;;;;;;;;4945775;28;20031;-74
2023/05/22 06:27:19;;;;;;;23.83;8.60;;;;;;;;;;4934694;29;20079;-77
2023/05/22 06:29:45;;;;;;;23.23;7.25;;;;;;;;;;4934927;29;20067;-77
2023/05/22 06:32:11;;;;;;;16.58;7.53;;;;;;;;;;4922447;29;20035;-77
2023/05/22 06:34:37;;;;;;;17.25;7.95;;;;;;;;;;4929476;29;20051;-74
2023/05/22 06:37:03;;;;;;;19.55;7.65;;;;;;;;;;4930762;29;20032;-75
2023/05/22 06:39:29;;;;;;;17.13;7.38;;;;;;;;;;4933516;29;20110;-74
2023/05/22 06:41:55;;;;;;;14.85;6.70;;;;;;;;;;4933534;29;20497;-74
2023/05/22 06:44:21;;;;;;;17.50;6.85;;;;;;;;;;4934028;29;20036;-74
2023/05/22 06:46:47;;;;;;;15.73;6.10;;;;;;;;;;4944931;29;20138;-75
2023/05/22 06:49:13;;;;;;;16.25;7.38;;;;;;;;;;4945269;29;20035;-77
2023/05/22 06:51:39;;;;;;;18.20;7.00;;;;;;;;;;4939731;29;20027;-75
2023/05/22 06:54:06;;;;;;;16.95;6.65;;;;;;;;;;4929855;29;20044;-75
2023/05/22 06:56:32;;;;;;;21.90;8.30;;;;;;;;;;4931105;29;20036;-79
2023/05/22 06:58:58;;;;;;;15.48;7.07;;;;;;;;;;4963418;28;20150;-80
2023/05/22 07:01:25;;;;;;;20.23;9.60;;;;;;;;;;4931182;28;20429;-80
2023/05/22 07:03:51;;;;;;;17.42;7.45;;;;;;;;;;4933118;29;20512;-79
2023/05/22 07:06:17;;;;;;;19.23;7.72;;;;;;;;;;4925452;29;20060;-79
2023/05/22 07:08:43;;;;;;;16.50;6.32;;;;;;;;;;4929044;29;20039;-81
2023/05/22 07:11:09;;;;;;;18.60;6.95;;;;;;;;;;4933731;29;20032;-81
2023/05/22 07:13:35;;;;;;;13.38;6.53;;;;;;;;;;4935145;29;20076;-80
2023/05/22 07:16:01;;;;;;;12.80;7.10;;;;;;;;;;4933138;29;20147;-80
2023/05/22 07:18:27;;;;;;;14.88;6.60;;;;;;;;;;4936769;29;20146;-79
2023/05/22 07:20:53;;;;;;;20.70;7.72;;;;;;;;;;4936080;29;20068;-80
2023/05/22 07:23:19;;;;;;;13.00;6.70;;;;;;;;;;4922581;29;20042;-79
2023/05/22 07:25:46;;;;;;;14.52;6.70;;;;;;;;;;4941532;29;20355;-76
2023/05/22 07:28:12;;;;;;;15.13;6.80;;;;;;;;;;4930474;29;20080;-78
2023/05/22 07:30:38;;;;;;;12.30;5.90;;;;;;;;;;4935041;29;20047;-77
2023/05/22 07:33:04;;;;;;;13.88;6.10;;;;;;;;;;4921566;29;20054;-78
2023/05/22 07:35:30;;;;;;;12.27;5.55;;;;;;;;;;4938466;29;20050;-74
2023/05/22 07:37:56;;;;;;;12.98;5.68;;;;;;;;;;4937701;29;20031;-83
2023/05/22 07:40:22;;;;;;;14.88;5.25;;;;;;;;;;4939842;29;20463;-79
2023/05/22 07:42:48;;;;;;;15.30;5.53;;;;;;;;;;4928576;28;20027;-83
2023/05/22 07:45:14;;;;;;;12.00;7.05;;;;;;;;;;4928889;29;20066;-77
2023/05/22 07:47:40;;;;;;;11.95;6.13;;;;;;;;;;4932253;29;20035;-81
2023/05/22 07:50:07;;;;;;;13.95;4.97;;;;;;;;;;4931376;29;20096;-85
2023/05/22 07:52:33;;;;;;;8.65;5.05;;;;;;;;;;4928219;29;20032;-81
2023/05/22 07:54:59;;;;;;;12.60;6.10;;;;;;;;;;4933651;29;20036;-79
2023/05/22 07:57:25;;;;;;;9.10;4.85;;;;;;;;;;4926293;28;20090;-83
2023/05/22 07:59:51;;;;;;;12.75;5.00;;;;;;;;;;4947727;28;20095;-81
2023/05/22 08:02:18;;;;;;;7.75;4.47;;;;;;;;;;4931175;29;20032;-83
2023/05/22 08:04:44;;;;;;;11.73;4.43;;;;;;;;;;4944062;29;20060;-83
2023/05/22 08:07:10;;;;;;;10.82;4.18;;;;;;;;;;4934536;29;20039;-82
2023/05/22 08:09:36;;;;;;;12.75;5.15;;;;;;;;;;4925902;29;20099;-79
2023/05/22 08:12:02;;;;;;;7.72;3.83;;;;;;;;;;4930420;29;20047;-81
2023/05/22 08:14:29;;;;;;;7.30;4.25;;;;;;;;;;4931748;29;20035;-77
2023/05/22 08:16:57;;;;;;;7.82;4.35;;;;;;;;;;4934613;29;20040;-78
2023/05/22 08:19:23;;;;;;;13.10;7.47;;;;;;;;;;4929229;29;20040;-77
2023/05/22 08:21:51;;;;;;;9.07;4.25;;;;;;;;;;4932517;29;20090;-81
2023/05/22 08:24:17;;;;;;;7.68;3.42;;;;;;;;;;4925309;29;20028;-77
2023/05/22 08:26:43;;;;;;;7.25;3.58;;;;;;;;;;4933872;29;20397;-75
2023/05/22 08:29:10;;;;;;;7.43;4.30;;;;;;;;;;4926119;29;20052;-76
2023/05/22 08:31:36;;;;;;;6.38;3.78;;;;;;;;;;4937155;29;20040;-76
2023/05/22 08:34:03;;;;;;;6.65;3.88;;;;;;;;;;4933663;29;20078;-76
2023/05/22 08:36:32;;;;;;;10.20;4.78;;;;;;;;;;4931473;29;20078;-75
2023/05/22 08:38:58;;;;;;;6.68;4.00;;;;;;;;;;4930196;29;20489;-77
2023/05/22 08:41:24;;;;;;;7.38;4.05;;;;;;;;;;4931489;29;20040;-76
2023/05/22 08:43:50;;;;;;;9.65;5.40;;;;;;;;;;4930272;29;20028;-76
2023/05/22 08:46:18;;;;;;;9.35;4.80;;;;;;;;;;4935366;29;20036;-76
2023/05/22 08:48:46;;;;;;;8.70;4.35;;;;;;;;;;4927346;29;20043;-76
2023/05/22 08:51:13;;;;;;;9.75;4.05;;;;;;;;;;4930565;29;20032;-76
2023/05/22 08:53:40;;;;;;;9.02;4.57;;;;;;;;;;4930252;29;20536;-76
2023/05/22 08:56:07;;;;;;;8.27;4.93;;;;;;;;;;4932845;29;20390;-76
2023/05/22 08:58:34;;;;;;;15.90;6.18;;;;;;;;;;4932567;29;20040;-77
2023/05/22 09:01:01;;;;;;;8.38;5.15;;;;;;;;;;4937631;29;20110;-77
2023/05/22 09:03:31;;;;;;;11.65;5.53;;;;;;;;;;4928480;29;20418;-77
2023/05/22 09:05:58;;;;;;;13.05;5.40;;;;;;;;;;4946137;28;20051;-77
2023/05/22 09:08:24;;;;;;;7.88;5.05;;;;;;;;;;4926429;29;20509;-76
2023/05/22 09:10:50;;;;;;;11.73;5.50;;;;;;;;;;4921414;29;20035;-76
2023/05/22 09:13:26;;;;;;;12.88;6.18;;;;;;;;;;4929491;29;20489;-76
2023/05/22 09:15:52;;;;;;;14.65;5.00;;;;;;;;;;4930843;29;20028;-76
2023/05/22 09:18:18;;;;;;;9.48;5.28;;;;;;;;;;4926809;29;20160;-76
2023/05/22 09:20:44;;;;;;;7.10;4.95;;;;;;;;;;4929169;29;20124;-75
2023/05/22 09:23:13;;;;;;;10.13;5.78;;;;;;;;;;4924479;29;20383;-76
2023/05/22 09:25:40;;;;;;;9.18;5.55;;;;;;;;;;4928205;29;20559;-76
2023/05/22 09:28:06;;;;;;;10.88;5.88;;;;;;;;;;4895895;29;1199804;-78
2023/05/22 09:30:35;;;;;;;11.25;5.60;;;;;;;;;;4932082;29;20028;-75
2023/05/22 09:33:01;;;;;;;9.50;6.45;;;;;;;;;;4926663;29;20344;-75
2023/05/22 09:35:27;;;;;;;13.10;6.60;;;;;;;;;;4926463;29;20035;-75
2023/05/22 09:37:56;;;;;;;14.95;6.97;;;;;;;;;;4930724;29;20032;-75
2023/05/22 09:40:22;;;;;;;14.80;6.68;;;;;;;;;;4928910;29;20058;-76
2023/05/22 09:42:48;;;;;;;13.57;6.57;;;;;;;;;;4947268;29;20028;-75
2023/05/22 09:45:14;;;;;;;10.98;6.55;;;;;;;;;;4934161;28;20450;-76
2023/05/22 09:47:40;;;;;;;11.68;6.55;;;;;;;;;;4941075;29;20059;-75
2023/05/22 09:50:08;;;;;;;11.73;5.82;;;;;;;;;;4929603;29;20088;-76
2023/05/22 09:52:35;;;;;;;12.63;6.07;;;;;;;;;;4932447;29;20377;-76
2023/05/22 09:55:05;;;;;;;12.32;6.50;;;;;;;;;;4929216;29;20043;-76
2023/05/22 09:57:35;;;;;;;10.55;6.50;;;;;;;;;;4930843;29;20435;-78
2023/05/22 10:00:03;;;;;;;12.60;7.95;;;;;;;;;;4923460;28;20041;-77
2023/05/22 10:02:29;;;;;;;16.42;8.55;;;;;;;;;;4936070;29;20044;-76
2023/05/22 10:04:55;;;;;;;16.98;7.72;;;;;;;;;;4933632;29;20039;-78
2023/05/22 10:07:22;;;;;;;14.57;7.03;;;;;;;;;;4934154;28;20193;-80
2023/05/22 10:09:51;;;;;;;15.95;7.32;;;;;;;;;;4932199;29;20474;-76
2023/05/22 10:12:19;;;;;;;9.90;6.68;;;;;;;;;;4931986;29;20500;-78
2023/05/22 10:14:45;;;;;;;8.73;6.05;;;;;;;;;;4931870;29;20440;-77
2023/05/22 10:17:11;;;;;;;12.60;6.70;;;;;;;;;;4929912;29;20330;-75
2023/05/22 10:19:38;;;;;;;13.73;7.20;;;;;;;;;;4926235;28;20363;-75
2023/05/22 10:22:04;;;;;;;12.00;6.32;;;;;;;;;;4929997;29;20028;-77
2023/05/22 10:24:31;;;;;;;12.50;7.65;;;;;;;;;;4931769;29;20098;-76
2023/05/22 10:26:57;;;;;;;11.63;6.88;;;;;;;;;;4932271;29;20042;-77
2023/05/22 10:29:33;;;;;;;15.27;10.38;;;;;;;;;;4936576;29;20034;-75
2023/05/22 10:32:41;;;;;;;11.02;8.18;;;24.20;99.90;;;;;;4940348;29;20035;-75
2023/05/22 10:35:12;;;;;;;14.40;9.05;;;;;;;;;;4918493;29;20062;-77
2023/05/22 10:37:45;;;;;;;12.98;7.65;;;;;;;;;;4924997;29;20091;-76
2023/05/22 10:40:12;;;;;;;12.77;7.05;;;;;;;;;;4936412;29;20020;-77
2023/05/22 10:42:38;;;;;;;12.65;7.95;;;;;;;;;;4931645;29;20095;-76
2023/05/22 10:45:08;;;;;;;12.85;7.78;;;;;;;;;;4933574;29;20032;-78
2023/05/22 10:47:34;;;;;;;10.80;6.95;;;;;;;;;;4935383;29;20182;-76
2023/05/22 10:50:08;;;;;;;11.68;7.05;;;;;;;;;;4935441;29;20038;-75
2023/05/22 10:52:35;;;;;;;10.88;7.43;;;;;;;;;;4933103;29;20047;-76
2023/05/22 10:55:05;;;;;;;11.15;8.85;;;;;;;;;;4934168;29;20066;-79
2023/05/22 10:57:36;;;;;;;12.32;8.13;;;;;;;;;;4927258;29;20092;-74
2023/05/22 11:00:23;;;;;;;9.77;7.17;;;;;;;;;;4930655;29;20556;-78
2023/05/22 11:02:50;;;;;;;13.20;7.22;;;;;;;;;;4928407;29;20382;-77
2023/05/22 11:05:20;;;;;;;12.10;8.20;;;;;;;;;;4948952;29;20118;-77
2023/05/22 11:07:46;;;;;;;13.35;7.75;;;;;;;;;;4954033;28;20103;-78
2023/05/22 11:10:12;;;;;;;14.30;7.90;;;;;;;;;;4933373;29;20032;-76
2023/05/22 11:12:40;;;;;;;9.25;7.15;;;;;;;;;;4934386;29;20483;-76
2023/05/22 11:15:07;;;;;;;14.00;8.48;;;;;;;;;;4935282;29;20032;-76
2023/05/22 11:17:35;;;;;;;12.65;8.52;;;;;;;;;;4931857;29;20095;-77
2023/05/22 11:20:01;;;;;;;13.25;8.30;;;;;;;;;;4922680;29;20079;-77
2023/05/22 11:22:31;;;;;;;12.57;7.68;;;;;;;;;;4935693;29;20388;-76
2023/05/22 11:24:57;;;;;;;15.70;7.80;;;;;;;;;;4945310;29;20102;-77
2023/05/22 11:27:23;;;;;;;14.88;8.10;;;;;;;;;;4932842;29;20052;-76
2023/05/22 11:29:50;;;;;;;11.73;8.13;;;;;;;;;;4933613;29;20036;-76
2023/05/22 11:32:19;;;;;;;18.80;8.68;;;;;;;;;;4934499;29;20043;-77
2023/05/22 11:34:51;;;;;;;12.90;8.30;;;25.90;99.90;;;;;;4932555;29;20051;-76
2023/05/22 11:37:17;;;;;;;9.65;7.72;;;;;;;;;;4932813;29;20036;-77
2023/05/22 11:39:54;;;;;;;15.40;8.90;;;25.80;99.90;;;;;;4937333;29;20034;-77
2023/05/22 11:42:20;;;;;;;10.02;7.65;;;;;;;;;;4933800;29;20043;-77
2023/05/22 11:44:46;;;;;;;13.07;8.57;;;;;;;;;;4945022;29;20087;-77
2023/05/22 11:47:13;;;;;;;16.67;8.73;;;;;;;;;;4948914;29;20035;-77
2023/05/22 11:49:41;;;;;;;13.07;8.38;;;25.60;99.90;;;;;;4932113;29;20032;-77
2023/05/22 11:52:07;;;;;;;12.98;8.18;;;;;;;;;;4932008;29;20044;-78
2023/05/22 11:54:33;;;;;;;12.60;8.98;;;;;;;;;;4952647;29;20031;-78
2023/05/22 11:56:59;;;;;;;10.82;8.73;;;;;;;;;;4949501;29;20437;-77
2023/05/22 11:59:26;;;;;;;12.18;8.48;;;;;;;;;;4937436;28;20032;-77
2023/05/22 12:01:52;;;;;;;10.65;8.70;;;;;;;;;;4948664;29;20031;-77
2023/05/22 12:04:18;;;;;;;11.45;8.65;;;;;;;;;;4933049;29;20047;-77
2023/05/22 12:06:44;;;;;;;14.38;10.10;;;;;;;;;;4933050;29;20040;-77
2023/05/22 12:09:11;;;;;;;12.30;9.02;;;;;;;;;;4933285;29;20386;-78
2023/05/22 12:11:37;;;;;;;12.07;8.88;;;;;;;;;;4934662;29;20035;-77
2023/05/22 12:14:03;;;;;;;12.88;9.75;;;25.30;99.90;;;;;;4934670;29;20537;-77
2023/05/22 12:16:35;;;;;;;12.90;10.15;;;24.90;99.90;;;;;;4939625;29;20043;-76
2023/05/22 12:19:04;;;;;;;28.95;10.45;;;;;;;;;;4940944;29;20098;-77
2023/05/22 12:21:30;;;;;;;17.83;9.25;;;25.30;99.90;;;;;;4945252;28;20036;-77
2023/05/22 12:23:56;;;;;;;12.35;8.63;;;;;;;;;;4932798;29;20209;-78
2023/05/22 12:26:22;;;;;;;12.75;8.15;;;;;;;;;;4948601;28;20043;-77
2023/05/22 12:28:52;;;;;;;15.80;8.52;;;25.50;99.90;;;;;;4934522;29;20052;-76
2023/05/22 12:31:21;;;;;;;11.93;9.13;;;24.90;99.90;;;;;;4948958;29;20032;-76
2023/05/22 12:33:47;;;;;;;10.65;8.75;;;;;;;;;;4942369;28;20071;-76
2023/05/22 12:36:13;;;;;;;11.88;9.00;;;;;;;;;;4931716;29;20040;-77
2023/05/22 12:38:40;;;;;;;14.60;8.98;;;;;;;;;;4929927;29;20094;-77
2023/05/22 12:41:06;;;;;;;13.65;9.02;;;;;;;;;;4935868;29;20035;-77
2023/05/22 12:43:32;;;;;;;11.77;8.93;;;;;;;;;;4934006;29;20043;-77
2023/05/22 12:45:57;;;;;;;17.58;9.57;;;24.70;99.90;;;;;;4938527;29;20473;-78
2023/05/22 12:48:23;;;;;;;19.75;10.45;;;;;;;;;;4940266;28;20039;-77
2023/05/22 12:50:49;;;;;;;15.88;9.93;;;;;;;;;;4944206;29;20051;-77
2023/05/22 12:53:15;;;;;;;13.90;9.43;;;;;;;;;;4947381;28;20039;-77
2023/05/22 12:55:42;;;;;;;17.75;11.07;;;;;;;;;;4930034;29;20450;-78
2023/05/22 12:58:08;;;;;;;17.23;10.70;;;;;;;;;;4928578;29;20031;-77
2023/05/22 13:00:35;;;;;;;16.88;10.05;;;;;;;;;;4935171;28;20501;-77
2023/05/22 13:03:01;;;;;;;20.17;10.10;;;;;;;;;;4945757;28;20035;-77
2023/05/22 13:05:27;;;;;;;18.85;9.55;;;;;;;;;;4935217;29;20130;-77
2023/05/22 13:07:53;;;;;;;17.02;10.88;;;;;;;;;;4929590;29;20055;-79
2023/05/22 13:10:19;;;;;;;18.02;10.85;;;;;;;;;;4932871;29;20063;-78
2023/05/22 13:12:47;;;;;;;10.50;8.85;;;;;;;;;;4928693;29;20505;-77
2023/05/22 13:15:14;;;;;;;11.45;8.77;;;;;;;;;;4933211;29;20063;-76
2023/05/22 13:17:40;;;;;;;13.27;9.25;;;24.60;99.90;;;;;;4945303;29;20366;-75
2023/05/22 13:20:06;;;;;;;12.65;9.02;;;;;;;;;;4927940;28;20500;-77
2023/05/22 13:22:32;;;;;;;11.40;8.65;;;;;;;;;;4945081;29;20054;-77
2023/05/22 13:24:59;;;;;;;12.25;7.80;;;;;;;;;;4927201;29;20054;-74
2023/05/22 13:27:26;;;;;;;21.15;11.00;;;;;;;;;;4928067;29;20036;-77
2023/05/22 13:29:52;;;;;;;17.48;8.88;;;;;;;;;;4930602;29;20039;-76
2023/05/22 13:32:18;;;;;;;12.90;8.05;;;;;;;;;;4939058;29;20042;-79
2023/05/22 13:34:44;;;;;;;17.02;7.85;;;;;;;;;;4923547;29;20032;-75
2023/05/22 13:37:10;;;;;;;12.05;8.13;;;;;;;;;;4925630;29;20036;-76
2023/05/22 13:39:37;;;;;;;10.80;7.70;;;;;;;;;;4924470;29;20119;-75
2023/05/22 13:42:03;;;;;;;12.35;8.50;;;;;;;;;;4924167;29;20031;-75
2023/05/22 13:44:29;;;;;;;15.38;7.95;;;;;;;;;;4925816;29;20040;-75
2023/05/22 13:46:55;;;;;;;10.95;7.68;;;;;;;;;;4926590;29;20103;-75
2023/05/22 13:49:21;;;;;;;9.90;7.60;;;;;;;;;;4923866;29;20040;-77
2023/05/22 13:51:47;;;;;;;14.52;8.00;;;;;;;;;;4925635;29;20546;-77
2023/05/22 13:54:13;;;;;;;10.18;7.47;;;;;;;;;;4924320;29;20046;-76
2023/05/22 13:56:40;;;;;;;14.63;6.38;;;;;;;;;;4942205;28;20044;-75
2023/05/22 13:59:05;;;;;;;8.68;6.70;;;24.30;99.90;;;;;;4925381;29;20493;-75
2023/05/22 14:01:31;;;;;;;9.15;5.20;;;;;;;;;;4930371;29;20084;-77
2023/05/22 14:03:57;;;;;;;8.02;5.65;;;;;;;;;;4926343;29;20036;-75
2023/05/22 14:06:23;;;;;;;8.60;6.13;;;;;;;;;;4928747;29;20066;-75
2023/05/22 14:08:49;;;;;;;6.55;5.70;;;;;;;;;;4926779;29;20039;-76
2023/05/22 14:11:15;;;;;;;9.13;6.18;;;;;;;;;;4928875;29;20031;-79
2023/05/22 14:13:42;;;;;;;8.13;6.05;;;;;;;;;;4933838;29;20481;-78
2023/05/22 14:16:08;;;;;;;9.32;6.50;;;;;;;;;;4931068;29;20062;-77
2023/05/22 14:18:34;;;;;;;11.13;6.50;;;;;;;;;;4935002;29;20036;-80
2023/05/22 14:21:00;;;;;;;9.20;5.82;;;;;;;;;;4942795;29;20099;-79